createdAt,value
2019-04-25T00:02:03.008Z,94496.50
2019-04-25T00:04:32.594Z,94492.09
2019-04-25T00:07:02.265Z,94499.66
2019-04-25T00:09:33.604Z,94493.67
2019-04-25T00:12:03.035Z,94490.59
2019-04-25T00:14:32.783Z,94494.91
2019-04-25T00:17:01.890Z,94499.80
2019-04-25T00:19:31.695Z,94492.73
2019-04-25T00:22:13.982Z,94493.48
2019-04-25T00:25:12.886Z,94487.56
2019-04-25T00:27:32.670Z,94487.43
2019-04-25T00:30:01.863Z,94473.67
2019-04-25T00:32:31.607Z,94475.84
2019-04-25T00:35:01.915Z,94476.45
2019-04-25T00:37:32.318Z,94487.22
2019-04-25T00:40:01.693Z,94478.58
2019-04-25T00:42:31.990Z,94483.84
2019-04-25T00:45:02.317Z,94492.18
2019-04-25T00:47:31.611Z,94482.05
2019-04-25T00:50:02.347Z,94469.24
2019-04-25T00:52:31.439Z,94476.28
2019-04-25T00:55:01.867Z,94478.82
2019-04-25T00:57:32.086Z,94479.37
2019-04-25T01:00:08.554Z,94477.14
2019-04-25T01:02:38.958Z,94485.69
2019-04-25T01:05:08.537Z,94491.39
2019-04-25T01:07:37.459Z,94495.82
2019-04-25T01:10:08.812Z,94478.08
2019-04-25T01:12:37.697Z,94499.20
2019-04-25T01:15:09.266Z,94496.20
2019-04-25T01:17:38.144Z,94500.59
2019-04-25T01:20:08.342Z,94504.98
2019-04-25T01:22:37.260Z,94511.07
2019-04-25T01:25:08.155Z,94507.22
2019-04-25T01:27:36.987Z,94510.52
2019-04-25T01:30:09.892Z,94504.16
2019-04-25T01:32:39.379Z,94514.78
2019-04-25T01:35:23.785Z,94507.67
2019-04-25T01:38:06.753Z,94517.52
2019-04-25T01:40:39.935Z,94517.52
2019-04-25T01:43:11.449Z,94533.09
2019-04-25T01:45:40.661Z,94534.34
2019-04-25T01:48:10.533Z,94529.58
2019-04-25T01:50:39.403Z,94535.02
2019-04-25T01:53:09.623Z,94540.44
2019-04-25T01:55:51.042Z,94541.73
2019-04-25T01:58:09.664Z,94540.88
2019-04-25T02:00:43.089Z,94533.25
2019-04-25T02:03:13.476Z,94520.67
2019-04-25T02:05:43.925Z,94529.06
2019-04-25T02:08:14.295Z,94514.91
2019-04-25T02:10:44.766Z,94503.88
2019-04-25T02:13:21.132Z,94504.73
2019-04-25T02:15:50.680Z,94496.30
2019-04-25T02:18:20.450Z,94507.61
2019-04-25T02:20:49.346Z,94515.27
2019-04-25T02:23:18.233Z,94513.78
2019-04-25T02:25:47.126Z,94508.14
2019-04-25T02:28:16.026Z,94500.14
2019-04-25T02:30:45.511Z,94502.11
2019-04-25T02:33:14.676Z,94509.47
2019-04-25T02:35:46.595Z,94494.48
2019-04-25T02:38:16.907Z,94512.10
2019-04-25T02:40:45.627Z,94511.02
2019-04-25T02:43:14.587Z,94519.02
2019-04-25T02:46:06.501Z,94512.78
2019-04-25T02:48:41.251Z,94519.34
2019-04-25T02:51:28.775Z,94532.05
2019-04-25T02:53:59.676Z,94520.78
2019-04-25T02:56:34.293Z,94523.92
2019-04-25T02:59:00.310Z,94525.02
2019-04-25T03:01:29.434Z,94521.59
2019-04-25T03:03:59.403Z,94515.94
2019-04-25T03:06:28.944Z,94522.63
2019-04-25T03:08:58.622Z,94522.17
2019-04-25T03:11:28.400Z,94520.77
2019-04-25T03:13:58.920Z,94514.31
2019-04-25T03:16:28.641Z,94512.49
2019-04-25T03:19:14.921Z,94507.71
2019-04-25T03:21:51.409Z,94517.95
2019-04-25T03:24:20.403Z,94511.41
2019-04-25T03:26:49.292Z,94509.77
2019-04-25T03:29:18.183Z,94505.16
2019-04-25T03:31:47.078Z,94508.19
2019-04-25T03:34:20.401Z,94497.77
2019-04-25T03:36:46.600Z,94508.27
2019-04-25T03:39:16.550Z,94502.77
2019-04-25T03:41:45.597Z,94499.53
2019-04-25T03:44:16.782Z,94488.52
2019-04-25T03:46:45.644Z,94485.34
2019-04-25T03:49:14.550Z,94481.34
2019-04-25T03:51:43.936Z,94483.72
2019-04-25T03:54:14.299Z,94480.95
2019-04-25T03:56:53.164Z,94479.29
2019-04-25T03:59:14.608Z,94485.69
2019-04-25T04:01:44.523Z,94478.26
2019-04-25T04:04:16.185Z,94475.66
2019-04-25T04:06:44.214Z,94471.19
2019-04-25T04:09:14.249Z,94457.39
2019-04-25T04:11:43.609Z,94463.23
2019-04-25T04:14:14.496Z,94456.48
2019-04-25T04:16:44.731Z,94454.30
2019-04-25T04:19:15.792Z,94446.88
2019-04-25T04:21:53.219Z,94452.31
2019-04-25T04:24:25.787Z,94448.92
2019-04-25T04:27:03.846Z,94447.80
2019-04-25T04:29:33.179Z,94454.65
2019-04-25T04:32:03.066Z,94454.23
2019-04-25T04:34:33.640Z,94458.89
2019-04-25T04:37:03.740Z,94451.77
2019-04-25T04:39:33.850Z,94444.34
2019-04-25T04:42:03.836Z,94436.92
2019-04-25T04:44:34.353Z,94441.11
2019-04-25T04:47:04.019Z,94435.66
2019-04-25T04:49:34.131Z,94423.55
2019-04-25T04:52:06.536Z,94419.91
2019-04-25T04:54:35.476Z,94420.22
2019-04-25T04:57:16.752Z,94429.96
2019-04-25T04:59:34.995Z,94429.14
2019-04-25T05:02:05.494Z,94431.06
2019-04-25T05:04:53.977Z,94429.48
2019-04-25T05:07:25.382Z,94429.89
2019-04-25T05:09:54.319Z,94422.20
2019-04-25T05:12:24.110Z,94430.58
2019-04-25T05:14:53.656Z,94428.09
2019-04-25T05:17:23.714Z,94430.78
2019-04-25T05:19:53.318Z,94425.80
2019-04-25T05:22:23.916Z,94420.86
2019-04-25T05:24:53.529Z,94427.19
2019-04-25T05:27:37.502Z,94431.13
2019-04-25T05:29:53.950Z,94423.70
2019-04-25T05:32:25.119Z,94417.08
2019-04-25T05:34:53.677Z,94432.16
2019-04-25T05:37:25.242Z,94440.78
2019-04-25T05:39:53.591Z,94437.48
2019-04-25T05:42:29.872Z,94428.12
2019-04-25T05:45:01.733Z,94423.58
2019-04-25T05:47:30.627Z,94434.15
2019-04-25T05:49:59.621Z,94439.62
2019-04-25T05:52:28.513Z,94431.88
2019-04-25T05:54:57.312Z,94427.94
2019-04-25T05:57:26.188Z,94431.81
2019-04-25T05:59:55.079Z,94441.98
2019-04-25T06:02:25.356Z,94431.05
2019-04-25T06:04:54.670Z,94438.78
2019-04-25T06:07:25.470Z,94429.50
2019-04-25T06:10:12.078Z,94432.11
2019-04-25T06:12:51.488Z,94426.52
2019-04-25T06:15:23.723Z,94420.48
2019-04-25T06:17:55.525Z,94419.70
2019-04-25T06:20:26.151Z,94427.28
2019-04-25T06:23:05.284Z,94426.95
2019-04-25T06:25:39.421Z,94429.87
2019-04-25T06:28:06.441Z,94417.05
2019-04-25T06:30:35.932Z,94412.08
2019-04-25T06:33:04.738Z,94417.15
2019-04-25T06:35:35.777Z,94407.86
2019-04-25T06:38:04.873Z,94411.08
2019-04-25T06:40:34.555Z,94412.75
2019-04-25T06:43:03.865Z,94410.94
2019-04-25T06:45:55.222Z,94419.84
2019-04-25T06:48:43.338Z,94413.24
2019-04-25T06:51:13.452Z,94415.09
2019-04-25T06:53:43.614Z,94412.39
2019-04-25T06:56:13.677Z,94406.30
2019-04-25T06:58:43.817Z,94404.29
2019-04-25T07:01:13.519Z,94403.00
2019-04-25T07:03:44.081Z,94406.23
2019-04-25T07:06:14.740Z,94398.62
2019-04-25T07:08:44.787Z,94413.72
2019-04-25T07:11:14.106Z,94406.37
2019-04-25T07:13:43.826Z,94415.75
2019-04-25T07:16:13.471Z,94410.55
2019-04-25T07:18:43.624Z,94407.73
2019-04-25T07:21:14.179Z,94402.02
2019-04-25T07:23:46.016Z,94396.96
2019-04-25T07:26:16.676Z,94386.84
2019-04-25T07:28:47.108Z,94387.64
2019-04-25T07:31:17.635Z,94398.78
2019-04-25T07:33:48.064Z,94378.17
2019-04-25T07:36:16.975Z,94381.90
2019-04-25T07:38:45.844Z,94386.13
2019-04-25T07:41:16.350Z,94383.52
2019-04-25T07:43:45.370Z,94384.07
2019-04-25T07:46:14.363Z,94376.98
2019-04-25T07:48:43.822Z,94372.52
2019-04-25T07:51:15.875Z,94382.49
2019-04-25T07:53:43.762Z,94369.39
2019-04-25T07:56:14.268Z,94366.53
2019-04-25T07:58:50.384Z,94372.56
2019-04-25T08:01:15.594Z,94372.81
2019-04-25T08:03:46.372Z,94364.63
2019-04-25T08:06:17.545Z,94367.47
2019-04-25T08:08:47.512Z,94359.33
2019-04-25T08:11:16.505Z,94370.37
2019-04-25T08:13:47.016Z,94365.11
2019-04-25T08:16:17.647Z,94373.22
2019-04-25T08:18:47.540Z,94378.23
2019-04-25T08:21:16.357Z,94375.06
2019-04-25T08:23:45.548Z,94363.42
2019-04-25T08:26:14.547Z,94365.44
2019-04-25T08:28:54.354Z,94370.31
2019-04-25T08:31:14.135Z,94372.41
2019-04-25T08:33:43.469Z,94361.17
2019-04-25T08:36:13.818Z,94374.02
2019-04-25T08:38:44.537Z,94366.02
2019-04-25T08:41:14.073Z,94367.22
2019-04-25T08:43:45.287Z,94371.38
2019-04-25T08:46:14.106Z,94360.23
2019-04-25T08:49:02.208Z,94360.62
2019-04-25T08:51:34.840Z,94357.65
2019-04-25T08:54:07.593Z,94367.56
2019-04-25T08:56:37.840Z,94375.55
2019-04-25T08:59:17.440Z,94379.44
2019-04-25T09:01:47.870Z,94377.75
2019-04-25T09:04:18.291Z,94377.47
2019-04-25T09:06:47.184Z,94374.65
2019-04-25T09:09:16.073Z,94387.50
2019-04-25T09:11:47.039Z,94374.64
2019-04-25T09:14:17.852Z,94372.06
2019-04-25T09:16:46.743Z,94361.91
2019-04-25T09:19:15.634Z,94370.91
2019-04-25T09:21:48.038Z,94355.81
2019-04-25T09:24:15.058Z,94366.87
2019-04-25T09:26:45.120Z,94354.52
2019-04-25T09:29:17.540Z,94348.57
2019-04-25T09:31:46.016Z,94347.50
2019-04-25T09:34:15.027Z,94364.69
2019-04-25T09:36:45.011Z,94342.52
2019-04-25T09:39:33.704Z,94343.23
2019-04-25T09:42:04.315Z,94356.83
2019-04-25T09:44:38.433Z,94355.33
2019-04-25T09:47:09.649Z,94355.05
2019-04-25T09:49:40.115Z,94351.53
2019-04-25T09:52:13.284Z,94362.19
2019-04-25T09:54:49.467Z,94370.88
2019-04-25T09:57:36.374Z,94372.49
2019-04-25T10:00:09.027Z,94359.47
2019-04-25T10:02:38.214Z,94355.34
2019-04-25T10:05:07.766Z,94363.27
2019-04-25T10:07:37.285Z,94353.55
2019-04-25T10:10:06.836Z,94370.69
2019-04-25T10:12:37.250Z,94369.03
2019-04-25T10:15:18.285Z,94364.64
2019-04-25T10:17:47.173Z,94362.83
2019-04-25T10:20:18.275Z,94355.75
2019-04-25T10:22:48.847Z,94363.31
2019-04-25T10:25:18.545Z,94358.67
2019-04-25T10:27:49.244Z,94345.37
2019-04-25T10:30:21.816Z,94346.55
2019-04-25T10:32:50.880Z,94340.94
2019-04-25T10:35:19.854Z,94346.30
2019-04-25T10:37:48.850Z,94347.93
2019-04-25T10:40:18.892Z,94336.30
2019-04-25T10:42:49.596Z,94338.14
2019-04-25T10:45:23.230Z,94351.78
2019-04-25T10:47:49.554Z,94344.91
2019-04-25T10:50:18.425Z,94340.09
2019-04-25T10:52:48.308Z,94350.23
2019-04-25T10:55:17.360Z,94348.91
2019-04-25T10:57:46.533Z,94336.24
2019-04-25T11:00:25.715Z,94341.66
2019-04-25T11:02:56.245Z,94347.52
2019-04-25T11:05:25.189Z,94360.59
2019-04-25T11:07:55.789Z,94345.05
2019-04-25T11:10:25.574Z,94357.34
2019-04-25T11:12:57.494Z,94348.64
2019-04-25T11:15:26.587Z,94347.63
2019-04-25T11:17:55.480Z,94351.91
2019-04-25T11:20:29.698Z,94348.41
2019-04-25T11:22:58.895Z,94359.97
2019-04-25T11:25:27.890Z,94356.02
2019-04-25T11:27:56.882Z,94354.20
2019-04-25T11:30:27.626Z,94361.37
2019-04-25T11:32:56.919Z,94360.41
2019-04-25T11:35:27.652Z,94364.67
2019-04-25T11:37:58.183Z,94351.12
2019-04-25T11:40:34.695Z,94362.83
2019-04-25T11:43:04.315Z,94362.10
2019-04-25T11:45:34.893Z,94365.91
2019-04-25T11:48:05.337Z,94364.35
2019-04-25T11:50:37.054Z,94361.20
2019-04-25T11:53:06.274Z,94363.98
2019-04-25T11:55:35.270Z,94353.61
2019-04-25T11:58:04.262Z,94365.09
2019-04-25T12:00:33.977Z,94361.04
2019-04-25T12:03:03.709Z,94354.86
2019-04-25T12:05:34.201Z,94354.78
2019-04-25T12:08:04.073Z,94369.34
2019-04-25T12:10:34.862Z,94368.80
2019-04-25T12:13:04.288Z,94356.05
2019-04-25T12:15:33.464Z,94358.50
2019-04-25T12:18:04.668Z,94362.17
2019-04-25T12:20:34.082Z,94364.28
2019-04-25T12:23:08.331Z,94370.65
2019-04-25T12:25:34.079Z,94367.62
2019-04-25T12:28:04.592Z,94371.41
2019-04-25T12:30:39.520Z,94372.73
2019-04-25T12:33:04.205Z,94366.81
2019-04-25T12:35:33.380Z,94367.81
2019-04-25T12:38:03.473Z,94363.13
2019-04-25T12:40:34.231Z,94360.22
2019-04-25T12:43:05.206Z,94362.23
2019-04-25T12:45:45.815Z,94357.48
2019-04-25T12:48:16.191Z,94362.72
2019-04-25T12:50:46.220Z,94359.73
2019-04-25T12:53:15.201Z,94364.73
2019-04-25T12:55:44.341Z,94363.45
2019-04-25T12:58:13.663Z,94362.03
2019-04-25T13:00:49.584Z,94363.06
2019-04-25T13:03:14.325Z,94361.89
2019-04-25T13:05:44.243Z,94367.13
2019-04-25T13:08:14.335Z,94365.95
2019-04-25T13:10:44.494Z,94366.88
2019-04-25T13:13:15.380Z,94363.62
2019-04-25T13:15:46.081Z,94360.83
2019-04-25T13:18:15.667Z,94361.22
2019-04-25T13:20:44.561Z,94364.76
2019-04-25T13:23:14.907Z,94365.00
2019-04-25T13:25:44.247Z,94363.87
2019-04-25T13:28:14.833Z,94367.05
2019-04-25T13:30:45.360Z,94363.95
2019-04-25T13:33:27.974Z,94374.47
2019-04-25T13:36:08.311Z,94371.73
2019-04-25T13:38:37.454Z,94367.94
2019-04-25T13:41:06.453Z,94367.77
2019-04-25T13:43:35.728Z,94371.36
2019-04-25T13:46:04.614Z,94369.83
2019-04-25T13:48:34.672Z,94363.92
2019-04-25T13:51:04.331Z,94358.15
2019-04-25T13:53:33.598Z,94356.34
2019-04-25T13:56:03.293Z,94353.29
2019-04-25T13:58:34.280Z,94354.61
2019-04-25T14:01:12.972Z,94351.30
2019-04-25T14:03:35.694Z,94350.41
2019-04-25T14:06:05.390Z,94350.05
2019-04-25T14:08:34.774Z,94348.74
2019-04-25T14:11:05.246Z,94347.84
2019-04-25T14:13:34.277Z,94338.91
2019-04-25T14:16:07.768Z,94336.44
2019-04-25T14:18:56.757Z,94334.39
2019-04-25T14:21:26.074Z,94333.27
2019-04-25T14:23:55.895Z,94330.34
2019-04-25T14:26:25.276Z,94330.48
2019-04-25T14:28:54.255Z,94332.19
2019-04-25T14:31:41.216Z,94329.87
2019-04-25T14:33:55.226Z,94336.09
2019-04-25T14:36:25.784Z,94326.09
2019-04-25T14:38:54.750Z,94323.97
2019-04-25T14:41:23.898Z,94317.81
2019-04-25T14:43:52.736Z,94320.33
2019-04-25T14:46:21.730Z,94324.13
2019-04-25T14:48:50.727Z,94321.19
2019-04-25T14:51:19.734Z,94304.20
2019-04-25T14:53:48.772Z,94304.20
2019-04-25T14:56:22.552Z,94315.84
2019-04-25T14:58:51.922Z,94316.41
2019-04-25T15:01:22.708Z,94321.70
2019-04-25T15:03:52.123Z,94316.74
2019-04-25T15:06:21.157Z,94311.67
2019-04-25T15:08:50.047Z,94310.06
2019-04-25T15:11:18.944Z,94310.64
2019-04-25T15:13:47.830Z,94316.20
2019-04-25T15:16:16.896Z,94327.63
2019-04-25T15:18:46.916Z,94309.56
2019-04-25T15:21:18.613Z,94319.88
2019-04-25T15:23:59.598Z,94318.39
2019-04-25T15:26:19.044Z,94324.91
2019-04-25T15:28:47.841Z,94325.41
2019-04-25T15:31:16.912Z,94320.13
2019-04-25T15:33:45.818Z,94326.40
2019-04-25T15:36:19.013Z,94333.74
2019-04-25T15:38:49.443Z,94328.16
2019-04-25T15:41:19.866Z,94322.89
2019-04-25T15:44:02.170Z,94332.83
2019-04-25T15:46:38.710Z,94331.34
2019-04-25T15:49:08.452Z,94339.14
2019-04-25T15:51:37.702Z,94334.15
2019-04-25T15:54:06.953Z,94337.37
2019-04-25T15:56:36.717Z,94337.61
2019-04-25T15:59:05.726Z,94334.40
2019-04-25T16:01:34.860Z,94330.11
2019-04-25T16:04:03.751Z,94321.28
2019-04-25T16:06:32.847Z,94333.50
2019-04-25T16:09:01.738Z,94331.09
2019-04-25T16:11:30.634Z,94340.19
2019-04-25T16:13:59.518Z,94347.02
2019-04-25T16:16:28.411Z,94347.84
2019-04-25T16:18:58.023Z,94354.58
2019-04-25T16:21:27.806Z,94355.33
2019-04-25T16:23:56.619Z,94377.88
2019-04-25T16:26:25.715Z,94384.86
2019-04-25T16:28:54.616Z,94384.86
2019-04-25T16:31:25.957Z,94389.45
2019-04-25T16:33:54.846Z,94390.38
2019-04-25T16:36:23.839Z,94395.81
2019-04-25T16:38:52.733Z,94388.47
2019-04-25T16:41:22.645Z,94389.18
2019-04-25T16:43:53.075Z,94396.16
2019-04-25T16:46:22.782Z,94398.31
2019-04-25T16:48:51.788Z,94401.38
2019-04-25T16:51:20.974Z,94379.94
2019-04-25T16:53:49.866Z,94386.56
2019-04-25T16:56:18.663Z,94394.67
2019-04-25T16:58:47.559Z,94402.61
2019-04-25T17:01:16.745Z,94400.39
2019-04-25T17:03:45.744Z,94403.31
2019-04-25T17:06:14.895Z,94414.62
2019-04-25T17:08:44.208Z,94400.18
2019-04-25T17:11:13.305Z,94405.22
2019-04-25T17:13:45.094Z,94408.13
2019-04-25T17:16:34.763Z,94425.00
2019-04-25T17:19:14.535Z,94408.18
2019-04-25T17:21:44.851Z,94400.83
2019-04-25T17:24:13.838Z,94402.98
2019-04-25T17:26:42.826Z,94403.52
2019-04-25T17:29:14.830Z,94416.16
2019-04-25T17:32:00.271Z,94411.68
2019-04-25T17:34:30.933Z,94420.59
2019-04-25T17:37:17.250Z,94443.98
2019-04-25T17:39:53.673Z,94466.56
2019-04-25T17:42:22.666Z,94478.05
2019-04-25T17:44:51.557Z,94467.55
2019-04-25T17:47:21.982Z,94483.89
2019-04-25T17:49:50.878Z,94511.13
2019-04-25T17:52:19.767Z,94514.27
2019-04-25T17:54:48.664Z,94525.25
2019-04-25T17:57:17.652Z,94529.90
2019-04-25T17:59:46.542Z,94517.31
2019-04-25T18:02:15.536Z,94511.30
2019-04-25T18:04:44.694Z,94514.17
2019-04-25T18:07:13.627Z,94510.67
2019-04-25T18:09:43.463Z,94532.77
2019-04-25T18:12:13.207Z,94552.72
2019-04-25T18:14:42.646Z,94576.45
2019-04-25T18:17:12.160Z,94568.23
2019-04-25T18:19:48.838Z,94569.23
2019-04-25T18:22:25.658Z,94580.35
2019-04-25T18:25:12.591Z,94576.93
2019-04-25T18:27:43.057Z,94580.20
2019-04-25T18:30:12.765Z,94575.95
2019-04-25T18:32:43.321Z,94577.66
2019-04-25T18:35:15.155Z,94571.37
2019-04-25T18:37:45.581Z,94558.72
2019-04-25T18:40:27.888Z,94557.16
2019-04-25T18:43:07.171Z,94562.58
2019-04-25T18:45:38.418Z,94579.28
2019-04-25T18:48:07.557Z,94599.17
2019-04-25T18:50:37.454Z,94614.64
2019-04-25T18:53:12.492Z,94629.14
2019-04-25T18:55:58.407Z,94660.20
2019-04-25T18:58:28.766Z,94655.46
2019-04-25T19:01:15.114Z,94649.52
2019-04-25T19:03:48.737Z,94644.91
2019-04-25T19:06:20.390Z,94626.17
2019-04-25T19:08:49.392Z,94630.59
2019-04-25T19:11:18.283Z,94639.95
2019-04-25T19:13:47.397Z,94614.17
2019-04-25T19:16:16.469Z,94615.25
2019-04-25T19:18:46.760Z,94630.16
2019-04-25T19:21:15.992Z,94625.64
2019-04-25T19:23:46.061Z,94626.33
2019-04-25T19:26:15.008Z,94595.64
2019-04-25T19:28:45.535Z,94577.16
2019-04-25T19:31:14.527Z,94586.66
2019-04-25T19:33:43.418Z,94596.42
2019-04-25T19:36:12.308Z,94606.53
2019-04-25T19:38:41.975Z,94621.14
2019-04-25T19:41:30.470Z,94624.09
2019-04-25T19:44:06.913Z,94629.53
2019-04-25T19:46:41.373Z,94635.71
2019-04-25T19:49:10.762Z,94651.50
2019-04-25T19:51:39.756Z,94667.40
2019-04-25T19:54:08.749Z,94679.05
2019-04-25T19:56:38.230Z,94684.06
2019-04-25T19:59:08.060Z,94674.06
2019-04-25T20:01:36.958Z,94675.94
2019-04-25T20:04:10.260Z,94697.76
2019-04-25T20:06:40.800Z,94717.49
2019-04-25T20:09:24.015Z,94728.93
2019-04-25T20:11:54.617Z,94727.89
2019-04-25T20:14:25.070Z,94739.03
2019-04-25T20:16:53.965Z,94757.72
2019-04-25T20:19:22.853Z,94758.09
2019-04-25T20:21:52.099Z,94767.70
2019-04-25T20:24:21.047Z,94773.52
2019-04-25T20:26:50.445Z,94773.45
2019-04-25T20:29:19.466Z,94783.71
2019-04-25T20:31:49.355Z,94798.21
2019-04-25T20:34:18.250Z,94798.21
2019-04-25T20:36:47.446Z,94808.47
2019-04-25T20:39:16.234Z,94796.02
2019-04-25T20:41:45.473Z,94799.77
2019-04-25T20:44:15.347Z,94813.80
2019-04-25T20:46:44.238Z,94825.59
2019-04-25T20:49:13.032Z,94851.52
2019-04-25T20:51:41.921Z,94869.38
2019-04-25T20:54:12.294Z,94884.72
2019-04-25T20:56:41.236Z,94921.66
2019-04-25T20:59:10.642Z,94922.14
2019-04-25T21:01:39.531Z,94921.62
2019-04-25T21:04:13.214Z,94937.52
2019-04-25T21:06:42.434Z,94957.74
2019-04-25T21:09:12.451Z,94969.56
2019-04-25T21:11:41.343Z,94960.94
2019-04-25T21:14:11.984Z,94973.55
2019-04-25T21:16:48.140Z,94984.99
2019-04-25T21:19:18.589Z,94994.84
2019-04-25T21:21:47.454Z,95012.02
2019-04-25T21:24:18.741Z,95010.55
2019-04-25T21:26:47.593Z,95019.28
2019-04-25T21:29:16.586Z,95049.36
2019-04-25T21:31:47.013Z,95067.32
2019-04-25T21:34:25.989Z,95075.92
2019-04-25T21:36:46.536Z,95066.31
2019-04-25T21:39:26.183Z,95051.05
2019-04-25T21:41:56.636Z,95055.66
2019-04-25T21:44:26.420Z,95065.75
2019-04-25T21:46:55.505Z,95064.70
2019-04-25T21:49:25.423Z,95074.39
2019-04-25T21:51:55.070Z,95083.73
2019-04-25T21:54:24.036Z,95092.61
2019-04-25T21:56:53.337Z,95091.21
2019-04-25T21:59:23.046Z,95096.89
2019-04-25T22:01:52.076Z,95096.89
2019-04-25T22:04:20.927Z,95108.64
2019-04-25T22:06:50.332Z,95120.84
2019-04-25T22:09:21.070Z,95133.45
2019-04-25T22:11:50.264Z,95122.74
2019-04-25T22:14:19.668Z,95122.02
2019-04-25T22:16:48.969Z,95126.73
2019-04-25T22:19:18.476Z,95140.66
2019-04-25T22:21:47.675Z,95141.05
2019-04-25T22:24:17.148Z,95129.77
2019-04-25T22:26:48.527Z,95125.45
2019-04-25T22:29:17.607Z,95125.62
2019-04-25T22:32:03.446Z,95131.64
2019-04-25T22:34:51.559Z,95133.29
2019-04-25T22:37:11.639Z,95149.55
2019-04-25T22:39:40.733Z,95154.41
2019-04-25T22:42:10.648Z,95161.47
2019-04-25T22:44:40.460Z,95145.48
2019-04-25T22:47:10.276Z,95137.27
2019-04-25T22:49:39.166Z,95138.28
2019-04-25T22:52:09.494Z,95129.58
2019-04-25T22:54:40.595Z,95134.79
2019-04-25T22:57:10.447Z,95133.03
2019-04-25T22:59:39.544Z,95120.64
2019-04-25T23:02:11.667Z,95115.70
2019-04-25T23:04:42.346Z,95120.36
2019-04-25T23:07:12.321Z,95129.16
2019-04-25T23:09:41.253Z,95138.66
2019-04-25T23:12:10.759Z,95136.31
2019-04-25T23:14:39.856Z,95142.17
2019-04-25T23:17:09.466Z,95142.64
2019-04-25T23:19:38.354Z,95143.31
2019-04-25T23:22:07.459Z,95136.34
2019-04-25T23:24:37.978Z,95136.44
2019-04-25T23:27:12.113Z,95141.64
2019-04-25T23:29:40.984Z,95132.34
2019-04-25T23:32:10.592Z,95133.05
2019-04-25T23:34:39.585Z,95132.64
2019-04-25T23:37:08.937Z,95137.72
2019-04-25T23:39:38.084Z,95148.11
2019-04-25T23:42:07.495Z,95151.12
2019-04-25T23:44:36.685Z,95157.16
2019-04-25T23:47:06.798Z,95150.75
2019-04-25T23:49:36.109Z,95157.66
2019-04-25T23:52:07.398Z,95157.12
2019-04-25T23:54:36.244Z,95170.88
2019-04-25T23:57:05.442Z,95173.08
2019-04-25T23:59:35.972Z,95165.59
